createdAt,value
2018-09-20T00:00:46.685Z,6.67
2018-09-20T00:03:14.217Z,8.57
2018-09-20T00:05:41.740Z,8.70
2018-09-20T00:08:09.298Z,8.07
2018-09-20T00:10:36.863Z,7.90
2018-09-20T00:13:04.400Z,15.00
2018-09-20T00:15:31.975Z,7.60
2018-09-20T00:17:59.544Z,12.37
2018-09-20T00:20:27.086Z,8.80
2018-09-20T00:22:54.591Z,9.20
2018-09-20T00:25:22.152Z,8.17
2018-09-20T00:27:49.722Z,11.97
2018-09-20T00:30:17.285Z,14.00
2018-09-20T00:32:44.808Z,11.73
2018-09-20T00:35:12.355Z,9.53
2018-09-20T00:37:39.930Z,5.57
2018-09-20T00:40:07.529Z,15.63
2018-09-20T00:42:35.066Z,11.60
2018-09-20T00:45:02.602Z,6.13
2018-09-20T00:47:30.159Z,6.20
2018-09-20T00:49:57.650Z,15.03
2018-09-20T00:52:25.215Z,7.67
2018-09-20T00:54:52.771Z,9.00
2018-09-20T00:57:20.328Z,7.60
2018-09-20T00:59:47.885Z,8.37
2018-09-20T01:02:15.516Z,9.40
2018-09-20T01:04:43.092Z,7.37
2018-09-20T01:07:10.641Z,8.43
2018-09-20T01:09:38.139Z,9.23
2018-09-20T01:12:05.695Z,13.40
2018-09-20T01:14:33.230Z,7.57
2018-09-20T01:17:00.825Z,7.30
2018-09-20T01:19:28.362Z,5.20
2018-09-20T01:21:56.321Z,16.63
2018-09-20T01:24:23.959Z,13.43
2018-09-20T01:26:51.573Z,7.30
2018-09-20T01:29:19.122Z,6.17
2018-09-20T01:31:46.719Z,14.10
2018-09-20T01:34:14.230Z,7.43
2018-09-20T01:36:41.822Z,8.57
2018-09-20T01:39:10.052Z,12.33
2018-09-20T01:41:37.613Z,9.03
2018-09-20T01:44:05.165Z,10.00
2018-09-20T01:46:32.733Z,8.47
2018-09-20T01:49:00.275Z,7.83
2018-09-20T01:51:27.793Z,7.70
2018-09-20T01:53:55.367Z,6.73
2018-09-20T01:56:22.942Z,7.83
2018-09-20T01:58:50.487Z,7.47
2018-09-20T02:01:18.043Z,12.73
2018-09-20T02:03:45.636Z,9.30
2018-09-20T02:06:13.195Z,4.43
2018-09-20T02:08:40.756Z,8.90
2018-09-20T02:11:08.269Z,6.87
2018-09-20T02:13:35.845Z,10.53
2018-09-20T02:16:03.384Z,9.20
2018-09-20T02:18:30.950Z,6.70
2018-09-20T02:20:58.503Z,12.00
2018-09-20T02:23:26.110Z,9.13
2018-09-20T02:25:53.614Z,8.80
2018-09-20T02:28:21.207Z,11.23
2018-09-20T02:30:48.764Z,7.50
2018-09-20T02:33:16.405Z,7.07
2018-09-20T02:35:44.018Z,10.70
2018-09-20T02:38:11.623Z,6.60
2018-09-20T02:40:39.131Z,6.43
2018-09-20T02:43:06.656Z,7.73
2018-09-20T02:45:34.208Z,10.60
2018-09-20T02:48:01.718Z,6.83
2018-09-20T02:50:29.272Z,10.50
2018-09-20T02:52:56.804Z,12.23
2018-09-20T02:55:24.327Z,6.40
2018-09-20T02:57:51.878Z,15.20
2018-09-20T03:00:19.423Z,10.60
2018-09-20T03:02:46.942Z,7.57
2018-09-20T03:05:14.590Z,12.90
2018-09-20T03:07:42.175Z,11.97
2018-09-20T03:10:09.714Z,11.60
2018-09-20T03:12:37.260Z,11.03
2018-09-20T03:15:05.198Z,9.80
2018-09-20T03:17:32.820Z,9.53
2018-09-20T03:20:00.379Z,10.30
2018-09-20T03:22:27.966Z,9.13
2018-09-20T03:24:55.529Z,11.23
2018-09-20T03:27:23.112Z,8.03
2018-09-20T03:29:50.647Z,9.97
2018-09-20T03:32:18.255Z,15.07
2018-09-20T03:34:45.811Z,8.20
2018-09-20T03:37:13.402Z,13.73
2018-09-20T03:39:40.933Z,7.30
2018-09-20T03:42:08.502Z,10.67
2018-09-20T03:44:36.295Z,10.27
2018-09-20T03:47:04.178Z,9.83
2018-09-20T03:49:31.969Z,7.10
2018-09-20T03:52:00.555Z,10.80
2018-09-20T03:54:28.356Z,8.90
2018-09-20T03:56:55.895Z,7.07
2018-09-20T03:59:23.487Z,9.40
2018-09-20T04:01:51.032Z,8.07
2018-09-20T04:04:18.579Z,12.07
2018-09-20T04:06:46.143Z,13.93
2018-09-20T04:09:13.785Z,10.00
2018-09-20T04:11:41.412Z,6.63
2018-09-20T04:14:09.265Z,9.93
2018-09-20T04:16:37.198Z,12.67
2018-09-20T04:19:04.886Z,9.23
2018-09-20T04:21:34.539Z,8.47
2018-09-20T04:24:03.390Z,10.10
2018-09-20T04:26:31.538Z,8.30
2018-09-20T04:28:59.697Z,9.80
2018-09-20T04:31:27.954Z,8.30
2018-09-20T04:33:56.936Z,12.73
2018-09-20T04:36:24.485Z,11.20
2018-09-20T04:38:52.072Z,17.97
2018-09-20T04:41:19.636Z,17.13
2018-09-20T04:43:47.449Z,9.30
2018-09-20T04:46:15.247Z,8.83
2018-09-20T04:48:43.593Z,11.23
2018-09-20T04:51:11.618Z,18.83
2018-09-20T04:53:39.618Z,11.67
2018-09-20T04:56:07.414Z,15.43
2018-09-20T04:58:35.548Z,17.30
2018-09-20T05:01:03.547Z,12.80
2018-09-20T05:03:31.603Z,14.97
2018-09-20T05:05:59.526Z,9.03
2018-09-20T05:08:27.358Z,11.93
2018-09-20T05:10:55.141Z,8.60
2018-09-20T05:13:23.123Z,10.63
2018-09-20T05:15:50.922Z,12.67
2018-09-20T05:18:18.763Z,12.60
2018-09-20T05:20:46.564Z,9.33
2018-09-20T05:23:14.414Z,14.13
2018-09-20T05:25:42.387Z,15.63
2018-09-20T05:28:10.774Z,9.47
2018-09-20T05:30:39.285Z,13.67
2018-09-20T05:33:07.852Z,13.80
2018-09-20T05:35:36.402Z,9.93
2018-09-20T05:38:04.441Z,15.93
2018-09-20T05:40:32.965Z,8.53
2018-09-20T05:43:00.831Z,8.70
2018-09-20T05:45:28.594Z,9.03
2018-09-20T05:47:57.052Z,11.90
2018-09-20T05:50:24.629Z,10.93
2018-09-20T05:52:52.259Z,12.07
2018-09-20T05:55:19.773Z,8.60
2018-09-20T05:57:47.330Z,13.90
2018-09-20T06:00:14.870Z,14.63
2018-09-20T06:02:42.512Z,14.87
2018-09-20T06:05:10.087Z,11.40
2018-09-20T06:07:37.648Z,10.40
2018-09-20T06:10:05.398Z,8.30
2018-09-20T06:12:32.953Z,10.83
2018-09-20T06:15:00.555Z,10.13
2018-09-20T06:17:28.081Z,10.03
2018-09-20T06:19:55.934Z,16.13
2018-09-20T06:22:23.484Z,17.70
2018-09-20T06:24:51.210Z,21.27
2018-09-20T06:27:18.738Z,18.03
2018-09-20T06:29:46.260Z,10.57
2018-09-20T06:32:13.782Z,12.13
2018-09-20T06:34:41.386Z,17.23
2018-09-20T06:37:08.903Z,9.37
2018-09-20T06:39:36.495Z,18.13
2018-09-20T06:42:04.068Z,20.77
2018-09-20T06:44:31.635Z,11.67
2018-09-20T06:46:59.206Z,14.47
2018-09-20T06:49:26.868Z,12.60
2018-09-20T06:51:54.418Z,8.63
2018-09-20T06:54:22.002Z,16.80
2018-09-20T06:56:49.559Z,15.43
2018-09-20T06:59:17.179Z,20.50
2018-09-20T07:01:44.703Z,7.03
2018-09-20T07:04:12.303Z,14.50
2018-09-20T07:06:39.829Z,14.83
2018-09-20T07:09:08.591Z,14.03
2018-09-20T07:11:36.736Z,12.10
2018-09-20T07:14:04.889Z,13.80
2018-09-20T07:16:32.800Z,12.87
2018-09-20T07:19:00.549Z,13.07
2018-09-20T07:21:28.439Z,10.63
2018-09-20T07:23:56.156Z,12.30
2018-09-20T07:26:24.788Z,15.63
2018-09-20T07:28:52.727Z,13.80
2018-09-20T07:31:20.682Z,14.90
2018-09-20T07:33:48.677Z,12.23
2018-09-20T07:36:16.736Z,15.17
2018-09-20T07:38:44.626Z,14.60
2018-09-20T07:41:12.677Z,11.80
2018-09-20T07:43:41.848Z,12.53
2018-09-20T07:46:10.751Z,12.83
2018-09-20T07:48:39.303Z,10.37
2018-09-20T07:51:07.205Z,13.33
2018-09-20T07:53:35.001Z,14.43
2018-09-20T07:56:02.906Z,6.50
2018-09-20T07:58:32.534Z,10.80
2018-09-20T08:01:00.434Z,17.20
2018-09-20T08:03:29.009Z,10.83
2018-09-20T08:05:57.640Z,10.80
2018-09-20T08:08:26.190Z,11.43
2018-09-20T08:10:54.202Z,9.23
2018-09-20T08:13:22.130Z,11.27
2018-09-20T08:15:50.123Z,7.83
2018-09-20T08:18:18.178Z,13.13
2018-09-20T08:20:45.971Z,13.90
2018-09-20T08:23:13.626Z,13.40
2018-09-20T08:25:41.354Z,13.70
2018-09-20T08:28:09.391Z,13.03
2018-09-20T08:30:37.393Z,12.63
2018-09-20T08:33:05.622Z,12.83
2018-09-20T08:35:33.621Z,16.90
2018-09-20T08:38:02.171Z,15.33
2018-09-20T08:40:30.657Z,12.30
2018-09-20T08:42:58.451Z,14.90
2018-09-20T08:45:27.075Z,20.93
2018-09-20T08:47:55.664Z,140.37
2018-09-20T08:50:23.623Z,11.83
2018-09-20T08:52:51.605Z,12.73
2018-09-20T08:55:19.421Z,12.93
2018-09-20T08:57:55.379Z,7.83
2018-09-20T09:00:23.061Z,11.77
2018-09-20T09:02:50.830Z,7.83
2018-09-20T09:05:18.810Z,63.63
2018-09-20T09:07:47.297Z,63.50
2018-09-20T09:10:15.426Z,31.27
2018-09-20T09:12:43.396Z,12.97
2018-09-20T09:15:11.225Z,12.37
2018-09-20T09:17:39.052Z,7.60
2018-09-20T09:20:08.277Z,16.00
2018-09-20T09:22:37.179Z,15.50
2018-09-20T09:25:06.366Z,211.00
2018-09-20T09:27:34.268Z,13.10
2018-09-20T09:30:02.139Z,12.37
2018-09-20T09:32:29.941Z,8.97
2018-09-20T09:34:58.862Z,10.63
2018-09-20T09:37:26.802Z,13.40
2018-09-20T09:39:54.633Z,11.80
2018-09-20T09:43:58.012Z,24.27
2018-09-20T09:46:25.567Z,7.73
2018-09-20T09:48:53.098Z,11.97
2018-09-20T09:51:20.678Z,9.70
2018-09-20T09:53:48.355Z,6.73
2018-09-20T09:56:15.919Z,12.43
2018-09-20T09:58:43.471Z,12.43
2018-09-20T10:01:11.074Z,11.93
2018-09-20T10:03:38.630Z,16.00
2018-09-20T10:06:06.314Z,9.90
2018-09-20T10:08:33.955Z,9.67
2018-09-20T10:11:01.543Z,9.00
2018-09-20T10:13:29.083Z,9.40
2018-09-20T10:15:56.628Z,19.30
2018-09-20T10:18:24.263Z,11.73
2018-09-20T10:20:51.958Z,10.13
2018-09-20T10:23:19.543Z,10.10
2018-09-20T10:25:47.116Z,9.60
2018-09-20T10:28:14.771Z,10.97
2018-09-20T10:30:42.259Z,14.93
2018-09-20T10:33:09.885Z,11.97
2018-09-20T10:35:37.527Z,13.47
2018-09-20T10:38:05.079Z,7.20
2018-09-20T10:40:32.651Z,8.10
2018-09-20T10:43:00.272Z,10.33
2018-09-20T10:45:27.927Z,7.93
2018-09-20T10:47:55.473Z,12.80
2018-09-20T10:50:23.060Z,6.83
2018-09-20T10:52:50.598Z,13.80
2018-09-20T10:55:18.374Z,12.53
2018-09-20T10:57:45.952Z,16.90
2018-09-20T11:00:13.495Z,10.57
2018-09-20T11:02:41.178Z,11.03
2018-09-20T11:05:08.730Z,9.60
2018-09-20T11:07:36.359Z,11.10
2018-09-20T11:10:03.907Z,12.43
2018-09-20T11:12:31.430Z,9.20
2018-09-20T11:14:58.993Z,10.90
2018-09-20T11:17:26.585Z,10.17
2018-09-20T11:19:54.381Z,8.80
2018-09-20T11:22:21.956Z,7.70
2018-09-20T11:24:49.537Z,4.57
2018-09-20T11:27:17.132Z,5.17
2018-09-20T11:29:44.665Z,5.50
2018-09-20T11:32:12.350Z,6.53
2018-09-20T11:34:39.961Z,9.37
2018-09-20T11:37:07.514Z,15.03
2018-09-20T11:39:35.136Z,6.07
2018-09-20T11:42:02.809Z,8.80
2018-09-20T11:44:30.457Z,13.97
2018-09-20T11:46:57.995Z,7.53
2018-09-20T11:49:25.575Z,9.17
2018-09-20T11:51:53.166Z,13.23
2018-09-20T11:54:20.727Z,11.83
2018-09-20T11:56:48.300Z,7.23
2018-09-20T11:59:15.866Z,8.93
2018-09-20T12:01:43.501Z,12.73
2018-09-20T12:04:11.058Z,15.93
2018-09-20T12:06:38.673Z,14.50
2018-09-20T12:09:06.588Z,9.97
2018-09-20T12:11:34.175Z,8.03
2018-09-20T12:14:01.797Z,11.13
2018-09-20T12:16:29.381Z,4.30
2018-09-20T12:18:56.905Z,8.77
2018-09-20T12:21:24.479Z,10.83
2018-09-20T12:23:52.128Z,5.30
2018-09-20T12:26:19.738Z,3.73
2018-09-20T12:28:47.731Z,10.80
2018-09-20T12:31:15.319Z,16.77
2018-09-20T12:33:42.895Z,7.87
2018-09-20T12:36:10.495Z,5.73
2018-09-20T12:38:38.148Z,4.90
2018-09-20T12:41:05.698Z,5.57
2018-09-20T12:43:33.259Z,9.43
2018-09-20T12:46:00.823Z,6.17
2018-09-20T12:48:28.430Z,6.33
2018-09-20T12:50:56.031Z,6.37
2018-09-20T12:53:23.608Z,6.43
2018-09-20T12:55:51.209Z,8.17
2018-09-20T12:58:20.054Z,8.37
2018-09-20T13:00:47.580Z,9.77
2018-09-20T13:03:15.204Z,7.83
2018-09-20T13:05:42.690Z,4.30
2018-09-20T13:08:10.257Z,6.50
2018-09-20T13:10:37.838Z,5.10
2018-09-20T13:13:05.440Z,9.10
2018-09-20T13:15:33.082Z,12.50
2018-09-20T13:18:00.643Z,20.00
2018-09-20T13:20:28.297Z,12.60
2018-09-20T13:22:55.803Z,5.67
2018-09-20T13:25:23.351Z,6.30
2018-09-20T13:27:50.966Z,13.53
2018-09-20T13:30:18.641Z,4.53
2018-09-20T13:32:46.263Z,8.23
2018-09-20T13:35:13.856Z,10.53
2018-09-20T13:37:41.455Z,171.27
2018-09-20T13:40:09.148Z,1999.90
2018-09-20T13:42:36.708Z,1999.90
2018-09-20T13:45:04.476Z,1999.90
2018-09-20T13:47:32.043Z,93.77
2018-09-20T13:49:59.620Z,1999.90
2018-09-20T13:52:27.199Z,94.77
2018-09-20T13:54:54.801Z,91.70
2018-09-20T13:57:22.446Z,89.37
2018-09-20T13:59:49.974Z,91.57
2018-09-20T14:02:17.553Z,115.93
2018-09-20T14:04:45.067Z,94.90
2018-09-20T14:07:12.701Z,97.10
2018-09-20T14:09:40.279Z,92.80
2018-09-20T14:12:07.862Z,92.77
2018-09-20T14:14:35.477Z,91.67
2018-09-20T14:17:03.115Z,94.00
2018-09-20T14:19:30.717Z,98.97
2018-09-20T14:21:58.334Z,95.20
2018-09-20T14:24:26.046Z,95.67
2018-09-20T14:26:53.665Z,107.37
2018-09-20T14:29:21.214Z,96.10
2018-09-20T14:31:48.871Z,93.67
2018-09-20T14:34:16.499Z,70.50
2018-09-20T14:36:44.075Z,62.20
2018-09-20T14:39:11.932Z,1999.90
2018-09-20T14:41:39.926Z,1999.90
2018-09-20T14:44:07.604Z,1999.90
2018-09-20T14:46:35.347Z,1999.90
2018-09-20T14:49:02.974Z,1999.90
2018-09-20T14:51:30.640Z,1999.90
2018-09-20T14:53:58.339Z,1999.90
2018-09-20T14:56:25.940Z,1999.90
2018-09-20T14:58:53.553Z,1999.90
2018-09-20T15:01:21.158Z,1999.90
2018-09-20T15:03:48.836Z,1999.90
2018-09-20T15:06:16.558Z,1999.90
2018-09-20T15:08:44.250Z,1999.90
2018-09-20T15:11:11.828Z,1999.90
2018-09-20T15:13:39.408Z,1999.90
2018-09-20T15:16:06.974Z,1999.90
2018-09-20T15:18:34.597Z,1999.90
2018-09-20T15:21:02.162Z,90.07
2018-09-20T15:23:29.793Z,81.10
2018-09-20T15:25:57.317Z,80.00
2018-09-20T15:28:24.834Z,78.47
2018-09-20T15:30:52.451Z,79.27
2018-09-20T15:33:20.015Z,1999.90
2018-09-20T15:35:47.607Z,1999.90
2018-09-20T15:38:15.202Z,1999.90
2018-09-20T15:40:42.807Z,1999.90
2018-09-20T15:43:10.344Z,1999.90
2018-09-20T15:45:37.921Z,1999.90
2018-09-20T15:48:05.545Z,1999.90
2018-09-20T15:50:33.121Z,1999.90
2018-09-20T15:53:00.662Z,1999.90
2018-09-20T15:55:28.236Z,1999.90
2018-09-20T15:57:55.800Z,1999.90
2018-09-20T16:00:23.399Z,1999.90
2018-09-20T16:02:51.014Z,1999.90
2018-09-20T16:05:18.638Z,1999.90
2018-09-20T16:07:46.295Z,1999.90
2018-09-20T16:10:13.839Z,100.03
2018-09-20T16:12:41.393Z,92.10
2018-09-20T16:15:08.953Z,87.60
2018-09-20T16:17:36.577Z,87.07
2018-09-20T16:20:04.162Z,81.70
2018-09-20T16:22:31.727Z,79.90
2018-09-20T16:24:59.254Z,76.10
2018-09-20T16:27:26.792Z,74.37
2018-09-20T16:30:05.741Z,72.87
2018-09-20T16:32:39.726Z,69.00
2018-09-20T16:35:13.193Z,1999.90
2018-09-20T16:37:47.292Z,1999.90
2018-09-20T16:40:16.913Z,1999.90
2018-09-20T16:42:46.621Z,1999.90
2018-09-20T16:45:14.160Z,1999.90
2018-09-20T16:47:41.769Z,1999.90
2018-09-20T16:50:09.394Z,1999.90
2018-09-20T16:52:37.047Z,1999.90
2018-09-20T16:55:04.605Z,1999.90
2018-09-20T16:57:32.222Z,1999.90
2018-09-20T16:59:59.775Z,75.57
2018-09-20T17:02:27.363Z,72.07
2018-09-20T17:04:54.895Z,68.20
2018-09-20T17:07:22.484Z,66.17
2018-09-20T17:09:49.997Z,66.07
2018-09-20T17:12:17.926Z,66.50
2018-09-20T17:14:45.544Z,66.50
2018-09-20T17:17:13.072Z,189.10
2018-09-20T17:19:40.686Z,1999.90
2018-09-20T17:22:08.335Z,94.57
2018-09-20T17:24:35.853Z,63.43
2018-09-20T17:27:03.403Z,54.43
2018-09-20T17:29:31.014Z,50.57
2018-09-20T17:31:58.595Z,52.20
2018-09-20T17:34:26.292Z,48.60
2018-09-20T17:36:54.332Z,46.03
2018-09-20T17:39:22.431Z,1999.90
2018-09-20T17:41:50.604Z,1999.90
2018-09-20T17:44:18.186Z,1999.90
2018-09-20T17:46:45.815Z,1999.90
2018-09-20T17:49:13.426Z,1999.90
2018-09-20T17:51:41.169Z,1999.90
2018-09-20T17:54:09.068Z,1999.90
2018-09-20T17:56:36.922Z,1999.90
2018-09-20T17:59:04.598Z,1999.90
2018-09-20T18:01:32.189Z,12.73
2018-09-20T18:03:59.778Z,9.03
2018-09-20T18:06:27.371Z,8.00
2018-09-20T18:08:54.912Z,6.10
2018-09-20T18:11:22.562Z,21.43
2018-09-20T18:13:50.164Z,10.70
2018-09-20T18:16:18.668Z,9.37
2018-09-20T18:18:46.238Z,11.90
2018-09-20T18:21:13.834Z,10.77
2018-09-20T18:23:41.445Z,11.00
2018-09-20T18:26:09.026Z,12.70
2018-09-20T18:28:36.595Z,11.10
2018-09-20T18:31:04.196Z,14.23
2018-09-20T18:33:31.813Z,11.40
2018-09-20T18:35:59.419Z,12.50
2018-09-20T18:38:27.061Z,10.80
2018-09-20T18:40:54.618Z,10.20
2018-09-20T18:43:22.240Z,10.43
2018-09-20T18:45:49.807Z,11.00
2018-09-20T18:48:17.404Z,13.47
2018-09-20T18:50:44.928Z,12.90
2018-09-20T18:53:12.502Z,11.70
2018-09-20T18:55:40.111Z,11.03
2018-09-20T18:58:07.875Z,15.47
2018-09-20T19:00:35.506Z,9.03
2018-09-20T19:03:03.103Z,11.40
2018-09-20T19:05:30.691Z,16.93
2018-09-20T19:07:58.250Z,10.07
2018-09-20T19:10:25.826Z,11.03
2018-09-20T19:12:53.454Z,24.13
2018-09-20T19:15:21.040Z,13.33
2018-09-20T19:17:48.590Z,9.77
2018-09-20T19:20:16.191Z,13.90
2018-09-20T19:22:43.800Z,14.30
2018-09-20T19:25:11.346Z,13.70
2018-09-20T19:27:38.940Z,13.10
2018-09-20T19:30:06.701Z,13.90
2018-09-20T19:32:34.217Z,18.13
2018-09-20T19:35:01.825Z,15.10
2018-09-20T19:37:29.366Z,11.53
2018-09-20T19:39:56.939Z,14.57
2018-09-20T19:42:24.482Z,13.93
2018-09-20T19:44:52.040Z,12.83
2018-09-20T19:47:19.590Z,10.27
2018-09-20T19:49:47.176Z,21.27
2018-09-20T19:52:14.731Z,10.43
2018-09-20T19:54:42.402Z,15.57
2018-09-20T19:57:09.975Z,14.20
2018-09-20T19:59:37.531Z,21.60
2018-09-20T20:02:05.112Z,15.07
2018-09-20T20:04:32.849Z,24.07
2018-09-20T20:07:00.405Z,14.43
2018-09-20T20:09:28.116Z,13.30
2018-09-20T20:11:55.743Z,17.03
2018-09-20T20:14:23.376Z,16.20
2018-09-20T20:16:50.909Z,19.17
2018-09-20T20:19:18.630Z,24.73
2018-09-20T20:21:46.145Z,13.17
2018-09-20T20:24:13.729Z,14.17
2018-09-20T20:26:41.315Z,11.93
2018-09-20T20:29:08.984Z,13.03
2018-09-20T20:31:36.594Z,18.70
2018-09-20T20:34:04.248Z,20.07
2018-09-20T20:36:31.840Z,16.53
2018-09-20T20:38:59.401Z,15.00
2018-09-20T20:41:27.001Z,14.40
2018-09-20T20:43:54.912Z,21.23
2018-09-20T20:46:22.554Z,11.63
2018-09-20T20:48:50.091Z,16.60
2018-09-20T20:51:18.587Z,17.83
2018-09-20T20:53:46.133Z,15.43
2018-09-20T20:56:13.868Z,14.10
2018-09-20T20:58:41.547Z,17.07
2018-09-20T21:01:13.557Z,23.90
2018-09-20T21:03:41.159Z,13.23
2018-09-20T21:06:08.751Z,18.70
2018-09-20T21:08:36.385Z,21.40
2018-09-20T21:11:03.961Z,19.27
2018-09-20T21:13:31.530Z,19.00
2018-09-20T21:15:59.096Z,17.43
2018-09-20T21:18:26.607Z,19.17
2018-09-20T21:20:54.167Z,17.87
2018-09-20T21:23:21.730Z,17.40
2018-09-20T21:25:49.492Z,19.33
2018-09-20T21:28:17.074Z,17.63
2018-09-20T21:30:44.747Z,16.67
2018-09-20T21:33:12.322Z,18.03
2018-09-20T21:35:39.907Z,20.87
2018-09-20T21:38:07.430Z,17.63
2018-09-20T21:40:34.999Z,24.13
2018-09-20T21:43:02.579Z,12.70
2018-09-20T21:45:30.202Z,12.83
2018-09-20T21:47:57.841Z,20.53
2018-09-20T21:50:25.509Z,13.67
2018-09-20T21:52:53.060Z,11.00
2018-09-20T21:55:20.653Z,11.93
2018-09-20T21:57:48.207Z,12.27
2018-09-20T22:00:15.851Z,12.13
2018-09-20T22:02:48.748Z,16.70
2018-09-20T22:05:16.348Z,10.67
2018-09-20T22:07:43.878Z,12.33
2018-09-20T22:10:11.430Z,9.33
2018-09-20T22:12:38.951Z,10.13
2018-09-20T22:15:10.791Z,8.30
2018-09-20T22:17:38.397Z,8.90
2018-09-20T22:20:06.167Z,8.37
2018-09-20T22:22:33.742Z,20.37
2018-09-20T22:25:01.249Z,9.73
2018-09-20T22:27:28.801Z,6.60
2018-09-20T22:29:56.515Z,8.40
2018-09-20T22:32:24.090Z,11.43
2018-09-20T22:34:51.598Z,7.80
2018-09-20T22:37:19.142Z,18.83
2018-09-20T22:39:46.715Z,9.80
2018-09-20T22:42:14.335Z,8.70
2018-09-20T22:44:41.934Z,9.93
2018-09-20T22:47:09.565Z,15.67
2018-09-20T22:49:37.083Z,9.50
2018-09-20T22:52:04.671Z,21.50
2018-09-20T22:54:32.201Z,15.73
2018-09-20T22:56:59.765Z,12.17
2018-09-20T22:59:27.323Z,7.20
2018-09-20T23:01:54.971Z,11.90
2018-09-20T23:04:22.499Z,6.87
2018-09-20T23:06:50.077Z,9.10
2018-09-20T23:09:17.713Z,10.30
2018-09-20T23:11:45.363Z,14.00
2018-09-20T23:14:12.943Z,10.00
2018-09-20T23:16:40.578Z,11.40
2018-09-20T23:19:08.274Z,10.40
2018-09-20T23:21:35.873Z,8.90
2018-09-20T23:24:03.542Z,10.73
2018-09-20T23:26:31.104Z,9.57
2018-09-20T23:28:58.672Z,11.37
2018-09-20T23:31:26.263Z,14.30
2018-09-20T23:33:53.833Z,8.50
2018-09-20T23:36:21.414Z,13.47
2018-09-20T23:38:48.982Z,10.30
2018-09-20T23:41:16.579Z,12.60
2018-09-20T23:43:44.170Z,12.30
2018-09-20T23:46:11.762Z,16.83
2018-09-20T23:48:39.322Z,7.50
2018-09-20T23:51:06.882Z,7.90
2018-09-20T23:53:34.588Z,6.63
2018-09-20T23:56:02.210Z,12.73
2018-09-20T23:58:29.789Z,11.17
